createdAt,value
2022-12-20T00:02:02.690Z,6.80
2022-12-20T00:04:29.608Z,4.25
2022-12-20T00:06:56.449Z,6.28
2022-12-20T00:09:23.595Z,6.35
2022-12-20T00:11:55.548Z,8.13
2022-12-20T00:14:22.539Z,5.53
2022-12-20T00:16:50.486Z,4.53
2022-12-20T00:19:18.725Z,5.85
2022-12-20T00:21:45.941Z,5.72
2022-12-20T00:24:12.929Z,4.78
2022-12-20T00:26:40.730Z,4.80
2022-12-20T00:29:18.937Z,4.57
2022-12-20T00:31:56.125Z,7.60
2022-12-20T00:34:27.102Z,4.38
2022-12-20T00:36:56.203Z,10.95
2022-12-20T00:39:25.265Z,5.13
2022-12-20T00:41:52.281Z,4.28
2022-12-20T00:44:19.116Z,3.88
2022-12-20T00:46:46.411Z,7.47
2022-12-20T00:49:17.262Z,4.65
2022-12-20T00:51:51.062Z,3.83
2022-12-20T00:54:21.786Z,6.82
2022-12-20T00:56:50.386Z,4.22
2022-12-20T00:59:17.392Z,3.63
2022-12-20T01:01:45.037Z,5.00
2022-12-20T01:04:13.777Z,7.32
2022-12-20T01:06:43.311Z,6.07
2022-12-20T01:09:14.405Z,4.90
2022-12-20T01:11:41.619Z,6.28
2022-12-20T01:14:12.652Z,5.70
2022-12-20T01:16:41.589Z,4.55
2022-12-20T01:19:11.040Z,7.75
2022-12-20T01:21:40.392Z,4.43
2022-12-20T01:24:07.911Z,4.43
2022-12-20T01:26:38.081Z,3.78
2022-12-20T01:29:10.010Z,4.70
2022-12-20T01:31:38.826Z,6.07
2022-12-20T01:34:10.922Z,3.92
2022-12-20T01:36:41.649Z,3.67
2022-12-20T01:39:14.925Z,3.40
2022-12-20T01:41:52.684Z,6.60
2022-12-20T01:44:56.522Z,3.72
2022-12-20T01:47:25.737Z,6.82
2022-12-20T01:49:55.915Z,3.22
2022-12-20T01:52:29.453Z,5.65
2022-12-20T01:55:05.935Z,4.35
2022-12-20T01:57:42.470Z,5.45
2022-12-20T02:00:12.859Z,5.95
2022-12-20T02:02:44.663Z,3.25
2022-12-20T02:05:12.008Z,3.47
2022-12-20T02:07:44.744Z,5.35
2022-12-20T02:10:12.928Z,3.55
2022-12-20T02:12:46.212Z,4.55
2022-12-20T02:15:35.589Z,3.83
2022-12-20T02:18:19.810Z,4.53
2022-12-20T02:21:12.973Z,6.07
2022-12-20T02:24:12.268Z,3.88
2022-12-20T02:27:02.206Z,5.00
2022-12-20T02:29:35.775Z,3.65
2022-12-20T02:32:12.429Z,3.20
2022-12-20T02:34:44.499Z,4.53
2022-12-20T02:37:16.995Z,3.58
2022-12-20T02:39:47.500Z,3.78
2022-12-20T02:42:18.684Z,8.70
2022-12-20T02:44:53.504Z,4.68
2022-12-20T02:47:27.535Z,4.22
2022-12-20T02:49:55.845Z,5.40
2022-12-20T02:52:26.968Z,5.68
2022-12-20T02:54:55.565Z,4.78
2022-12-20T02:57:28.970Z,5.85
2022-12-20T03:00:01.731Z,7.22
2022-12-20T03:02:33.879Z,4.07
2022-12-20T03:05:02.372Z,5.90
2022-12-20T03:07:33.910Z,5.13
2022-12-20T03:10:00.980Z,4.47
2022-12-20T03:12:32.073Z,5.95
2022-12-20T03:15:03.395Z,4.07
2022-12-20T03:17:38.280Z,3.92
2022-12-20T03:20:15.457Z,4.45
2022-12-20T03:22:55.632Z,3.95
2022-12-20T03:25:22.650Z,5.35
2022-12-20T03:27:49.631Z,4.03
2022-12-20T03:30:21.795Z,6.63
2022-12-20T03:33:10.013Z,3.83
2022-12-20T03:35:42.276Z,9.50
2022-12-20T03:38:11.754Z,5.13
2022-12-20T03:40:41.501Z,4.38
2022-12-20T03:43:08.556Z,4.88
2022-12-20T03:45:37.468Z,6.60
2022-12-20T03:48:07.756Z,5.38
2022-12-20T03:50:49.162Z,4.07
2022-12-20T03:53:20.219Z,7.43
2022-12-20T03:55:49.741Z,4.28
2022-12-20T03:58:22.803Z,4.70
2022-12-20T04:00:52.768Z,6.28
2022-12-20T04:03:23.826Z,6.75
2022-12-20T04:05:51.238Z,6.03
2022-12-20T04:08:21.118Z,5.65
2022-12-20T04:10:48.074Z,5.32
2022-12-20T04:13:15.160Z,5.03
2022-12-20T04:15:45.340Z,4.88
2022-12-20T04:18:14.121Z,6.15
2022-12-20T04:20:47.877Z,4.97
2022-12-20T04:23:14.927Z,6.82
2022-12-20T04:25:43.927Z,9.25
2022-12-20T04:28:13.070Z,4.50
2022-12-20T04:30:40.131Z,5.28
2022-12-20T04:33:08.296Z,6.55
2022-12-20T04:35:37.735Z,6.07
2022-12-20T04:38:05.912Z,4.65
2022-12-20T04:40:38.031Z,5.05
2022-12-20T04:43:05.972Z,5.38
2022-12-20T04:45:37.021Z,4.25
2022-12-20T04:48:37.261Z,6.78
2022-12-20T04:50:56.971Z,4.93
2022-12-20T04:53:25.451Z,5.18
2022-12-20T04:55:57.853Z,4.10
2022-12-20T04:58:24.915Z,6.78
2022-12-20T05:00:51.752Z,4.65
2022-12-20T05:03:20.039Z,5.15
2022-12-20T05:05:47.817Z,4.65
2022-12-20T05:08:17.888Z,6.88
2022-12-20T05:10:54.753Z,4.43
2022-12-20T05:13:24.251Z,8.98
2022-12-20T05:15:57.076Z,3.95
2022-12-20T05:18:25.024Z,4.28
2022-12-20T05:21:03.773Z,4.30
2022-12-20T05:23:37.831Z,4.40
2022-12-20T05:26:10.307Z,4.13
2022-12-20T05:28:39.033Z,5.43
2022-12-20T05:31:08.122Z,8.40
2022-12-20T05:33:35.009Z,4.70
2022-12-20T05:36:01.780Z,5.32
2022-12-20T05:38:32.909Z,4.15
2022-12-20T05:40:59.785Z,4.60
2022-12-20T05:43:34.187Z,4.30
2022-12-20T05:46:04.140Z,4.10
2022-12-20T05:48:31.266Z,4.93
2022-12-20T05:50:59.470Z,5.53
2022-12-20T05:53:29.256Z,5.28
2022-12-20T05:56:03.705Z,4.10
2022-12-20T05:58:32.130Z,4.63
2022-12-20T06:01:09.981Z,5.35
2022-12-20T06:03:37.644Z,3.97
2022-12-20T06:06:14.125Z,3.10
2022-12-20T06:08:55.103Z,5.07
2022-12-20T06:11:29.841Z,3.72
2022-12-20T06:13:58.649Z,4.43
2022-12-20T06:16:32.767Z,3.50
2022-12-20T06:19:08.875Z,7.32
2022-12-20T06:21:40.102Z,4.93
2022-12-20T06:24:19.377Z,3.70
2022-12-20T06:26:48.481Z,3.70
2022-12-20T06:29:27.567Z,3.83
2022-12-20T06:32:03.088Z,5.32
2022-12-20T06:34:32.177Z,6.40
2022-12-20T06:36:59.527Z,4.00
2022-12-20T06:39:31.552Z,6.68
2022-12-20T06:42:06.833Z,6.43
2022-12-20T06:44:53.387Z,9.77
2022-12-20T06:47:20.215Z,4.50
2022-12-20T06:49:47.768Z,5.78
2022-12-20T06:52:17.639Z,4.80
2022-12-20T06:54:44.597Z,4.63
2022-12-20T06:57:11.401Z,5.57
2022-12-20T06:59:38.406Z,6.05
2022-12-20T07:02:08.116Z,6.85
2022-12-20T07:04:35.890Z,5.55
2022-12-20T07:07:04.413Z,5.15
2022-12-20T07:09:38.112Z,5.47
2022-12-20T07:12:05.385Z,5.32
2022-12-20T07:14:32.325Z,5.90
2022-12-20T07:16:59.232Z,6.10
2022-12-20T07:19:27.870Z,5.93
2022-12-20T07:21:57.123Z,5.95
2022-12-20T07:24:24.023Z,5.43
2022-12-20T07:26:54.477Z,5.45
2022-12-20T07:29:28.027Z,4.75
2022-12-20T07:31:55.040Z,6.85
2022-12-20T07:34:22.310Z,7.75
2022-12-20T07:36:58.350Z,6.25
2022-12-20T07:39:25.470Z,5.20
2022-12-20T07:41:56.141Z,5.65
2022-12-20T07:44:26.098Z,7.90
2022-12-20T07:47:12.710Z,5.03
2022-12-20T07:49:42.418Z,5.53
2022-12-20T07:52:13.954Z,7.13
2022-12-20T07:54:52.554Z,6.65
2022-12-20T07:57:23.927Z,4.97
2022-12-20T08:02:45.331Z,5.25
2022-12-20T08:05:23.710Z,6.22
2022-12-20T08:08:23.986Z,5.18
2022-12-20T08:10:53.611Z,6.88
2022-12-20T08:13:22.825Z,4.40
2022-12-20T08:15:50.171Z,8.38
2022-12-20T08:18:17.076Z,5.57
2022-12-20T08:20:44.061Z,7.57
2022-12-20T08:23:14.481Z,6.53
2022-12-20T08:25:42.459Z,4.63
2022-12-20T08:28:09.451Z,4.38
2022-12-20T08:30:36.376Z,4.50
2022-12-20T08:33:03.425Z,5.55
2022-12-20T08:35:30.213Z,5.70
2022-12-20T08:38:12.002Z,5.50
2022-12-20T08:40:41.912Z,4.75
2022-12-20T08:43:10.711Z,5.53
2022-12-20T08:46:04.282Z,4.53
2022-12-20T08:48:31.272Z,5.47
2022-12-20T08:51:00.156Z,3.85
2022-12-20T08:53:28.422Z,4.47
2022-12-20T08:56:04.171Z,4.80
2022-12-20T08:58:30.891Z,4.07
2022-12-20T09:01:03.045Z,3.25
2022-12-20T09:03:35.686Z,4.38
2022-12-20T09:06:08.093Z,3.78
2022-12-20T09:08:35.555Z,3.20
2022-12-20T09:11:09.769Z,3.17
2022-12-20T09:13:43.289Z,8.65
2022-12-20T09:16:11.141Z,3.63
2022-12-20T09:18:38.190Z,5.25
2022-12-20T09:21:07.185Z,6.20
2022-12-20T09:23:35.556Z,3.92
2022-12-20T09:26:03.148Z,6.20
2022-12-20T09:28:31.754Z,6.07
2022-12-20T09:30:59.268Z,2.95
2022-12-20T09:33:30.137Z,3.00
2022-12-20T09:35:57.853Z,3.13
2022-12-20T09:38:25.437Z,3.97
2022-12-20T09:40:55.210Z,3.63
2022-12-20T09:43:24.023Z,3.60
2022-12-20T09:45:55.847Z,3.67
2022-12-20T09:48:26.048Z,5.70
2022-12-20T09:51:08.379Z,5.03
2022-12-20T09:56:45.891Z,3.15
2022-12-20T09:59:18.133Z,4.00
2022-12-20T10:01:50.155Z,3.13
2022-12-20T10:04:22.515Z,4.03
2022-12-20T10:07:03.373Z,5.20
2022-12-20T10:09:52.509Z,5.00
2022-12-20T10:12:28.076Z,4.22
2022-12-20T10:15:13.947Z,3.38
2022-12-20T10:18:01.860Z,2.88
2022-12-20T10:20:43.978Z,3.10
2022-12-20T10:23:21.711Z,5.32
2022-12-20T10:25:55.232Z,3.75
2022-12-20T10:28:26.927Z,4.97
2022-12-20T10:30:55.146Z,3.47
2022-12-20T10:33:27.154Z,2.97
2022-12-20T10:35:54.134Z,5.45
2022-12-20T10:38:21.110Z,5.10
2022-12-20T10:41:20.711Z,5.15
2022-12-20T10:43:51.443Z,5.90
2022-12-20T10:46:23.154Z,7.38
2022-12-20T10:48:54.308Z,3.42
2022-12-20T10:51:24.309Z,2.60
2022-12-20T10:53:54.469Z,4.85
2022-12-20T10:56:23.679Z,4.40
2022-12-20T10:59:07.406Z,5.18
2022-12-20T11:01:39.616Z,5.03
2022-12-20T11:04:26.401Z,4.57
2022-12-20T11:06:53.698Z,2.95
2022-12-20T11:09:32.984Z,3.17
2022-12-20T11:12:06.169Z,4.32
2022-12-20T11:14:45.541Z,5.30
2022-12-20T11:17:28.440Z,4.13
2022-12-20T11:20:22.282Z,4.93
2022-12-20T11:22:57.107Z,4.43
2022-12-20T11:25:50.799Z,6.97
2022-12-20T11:28:38.531Z,3.25
2022-12-20T11:31:16.080Z,5.60
2022-12-20T11:33:59.584Z,5.72
2022-12-20T11:36:41.379Z,3.90
2022-12-20T11:39:14.994Z,6.47
2022-12-20T11:41:56.828Z,6.40
2022-12-20T11:44:28.854Z,5.22
2022-12-20T11:47:16.043Z,10.55
2022-12-20T11:50:01.315Z,5.72
2022-12-20T11:52:38.925Z,3.92
2022-12-20T11:55:17.964Z,4.97
2022-12-20T11:58:17.345Z,4.00
2022-12-20T12:00:46.362Z,4.60
2022-12-20T12:03:19.138Z,7.45
2022-12-20T12:05:48.813Z,6.15
2022-12-20T12:08:22.652Z,5.63
2022-12-20T12:10:57.995Z,5.63
2022-12-20T12:13:28.565Z,5.22
2022-12-20T12:16:01.785Z,8.40
2022-12-20T12:18:31.520Z,5.63
2022-12-20T12:21:08.888Z,5.53
2022-12-20T12:23:45.399Z,8.07
2022-12-20T12:26:18.854Z,6.53
2022-12-20T12:28:52.654Z,6.35
2022-12-20T12:31:26.752Z,7.28
2022-12-20T12:34:05.553Z,8.15
2022-12-20T12:37:01.770Z,6.47
2022-12-20T12:39:58.949Z,9.05
2022-12-20T12:42:58.248Z,9.52
2022-12-20T12:45:28.149Z,7.13
2022-12-20T12:48:00.648Z,7.70
2022-12-20T12:50:31.191Z,6.78
2022-12-20T12:53:05.325Z,7.63
2022-12-20T12:55:41.263Z,7.78
2022-12-20T12:58:29.914Z,7.00
2022-12-20T13:00:58.188Z,7.25
2022-12-20T13:04:09.591Z,7.93
2022-12-20T13:07:23.998Z,7.57
2022-12-20T13:09:52.125Z,7.20
2022-12-20T13:12:54.545Z,7.57
2022-12-20T13:16:11.015Z,10.63
2022-12-20T13:19:00.758Z,7.82
2022-12-20T13:22:19.390Z,7.95
2022-12-20T13:25:04.286Z,8.23
2022-12-20T13:27:37.245Z,9.95
2022-12-20T13:30:40.346Z,8.88
2022-12-20T13:33:46.142Z,10.00
2022-12-20T13:36:40.311Z,9.68
2022-12-20T13:39:32.853Z,9.73
2022-12-20T13:42:19.605Z,8.88
2022-12-20T13:44:47.803Z,9.02
2022-12-20T13:47:31.097Z,9.55
2022-12-20T13:50:01.360Z,9.77
2022-12-20T13:52:31.190Z,11.10
2022-12-20T13:55:02.587Z,10.82
2022-12-20T14:00:14.400Z,9.82
2022-12-20T14:02:42.546Z,11.68
2022-12-20T14:05:18.909Z,10.30
2022-12-20T14:07:47.823Z,10.85
2022-12-20T14:10:19.284Z,11.48
2022-12-20T14:15:26.535Z,12.93
2022-12-20T14:17:54.294Z,12.15
2022-12-20T14:20:25.382Z,14.88
2022-12-20T14:25:52.249Z,11.55
2022-12-20T14:28:29.821Z,14.80
2022-12-20T14:30:58.687Z,13.82
2022-12-20T14:33:30.874Z,13.15
2022-12-20T14:35:58.097Z,13.15
2022-12-20T14:38:29.848Z,14.52
2022-12-20T14:40:56.630Z,13.73
2022-12-20T14:43:28.153Z,16.98
2022-12-20T14:46:19.142Z,15.15
2022-12-20T14:48:47.420Z,20.08
2022-12-20T14:51:21.275Z,20.23
2022-12-20T14:53:50.476Z,17.05
2022-12-20T14:56:23.802Z,16.98
2022-12-20T14:59:13.234Z,16.75
2022-12-20T15:01:43.976Z,16.58
2022-12-20T15:06:50.406Z,30.40
2022-12-20T15:09:17.330Z,18.40
2022-12-20T15:11:45.938Z,17.75
2022-12-20T15:14:25.449Z,20.27
2022-12-20T15:16:53.208Z,18.70
2022-12-20T15:19:20.195Z,24.00
2022-12-20T15:21:47.275Z,26.20
2022-12-20T15:24:15.803Z,22.67
2022-12-20T15:26:42.801Z,22.08
2022-12-20T15:29:16.412Z,25.08
2022-12-20T15:31:46.350Z,21.90
2022-12-20T15:34:15.508Z,23.42
2022-12-20T15:36:42.827Z,24.83
2022-12-20T15:39:13.530Z,27.05
2022-12-20T15:41:43.046Z,25.25
2022-12-20T15:44:14.041Z,30.13
2022-12-20T15:46:40.916Z,32.20
2022-12-20T15:49:14.226Z,35.13
2022-12-20T15:51:42.201Z,25.98
2022-12-20T15:54:24.443Z,26.83
2022-12-20T15:56:51.511Z,28.48
2022-12-20T15:59:57.769Z,30.13
2022-12-20T16:02:18.402Z,29.60
2022-12-20T16:04:46.630Z,27.75
2022-12-20T16:07:15.755Z,27.73
2022-12-20T16:09:42.976Z,35.13
2022-12-20T16:12:15.460Z,35.50
2022-12-20T16:14:42.202Z,31.85
2022-12-20T16:17:14.776Z,31.73
2022-12-20T16:19:41.547Z,32.92
2022-12-20T16:22:18.433Z,35.55
2022-12-20T16:24:45.688Z,31.42
2022-12-20T16:27:13.028Z,38.83
2022-12-20T16:29:40.529Z,39.40
2022-12-20T16:32:35.013Z,35.97
2022-12-20T16:35:04.841Z,36.22
2022-12-20T16:37:37.277Z,31.05
2022-12-20T16:40:11.727Z,31.80
2022-12-20T16:42:38.753Z,30.38
2022-12-20T16:45:31.143Z,31.50
2022-12-20T16:47:58.490Z,37.13
2022-12-20T16:50:38.169Z,40.55
2022-12-20T16:53:21.607Z,31.08
2022-12-20T16:56:03.734Z,33.20
2022-12-20T16:59:16.783Z,37.88
2022-12-20T17:01:25.420Z,32.05
2022-12-20T17:03:55.037Z,35.17
2022-12-20T17:06:22.189Z,39.65
2022-12-20T17:08:53.116Z,39.72
2022-12-20T17:11:29.518Z,38.38
2022-12-20T17:14:00.875Z,36.28
2022-12-20T17:18:56.498Z,39.13
2022-12-20T17:21:29.737Z,41.45
2022-12-20T17:24:02.668Z,37.85
2022-12-20T17:26:34.969Z,35.03
2022-12-20T17:29:01.838Z,32.50
2022-12-20T17:31:33.675Z,32.83
2022-12-20T17:34:02.918Z,34.95
2022-12-20T17:36:37.663Z,30.20
2022-12-20T17:39:24.850Z,37.38
2022-12-20T17:41:52.349Z,44.05
2022-12-20T17:44:24.125Z,39.40
2022-12-20T17:46:59.942Z,46.45
2022-12-20T17:49:30.309Z,49.08
2022-12-20T17:52:08.213Z,50.75
2022-12-20T17:54:40.441Z,51.30
2022-12-20T17:57:13.422Z,55.00
2022-12-20T17:59:40.354Z,50.80
2022-12-20T18:02:19.891Z,50.42
2022-12-20T18:04:46.975Z,50.08
2022-12-20T18:07:16.596Z,52.15
2022-12-20T18:09:51.405Z,50.22
2022-12-20T18:12:18.442Z,58.50
2022-12-20T18:14:48.023Z,53.28
2022-12-20T18:17:17.964Z,56.60
2022-12-20T18:19:45.179Z,52.78
2022-12-20T18:22:13.885Z,63.70
2022-12-20T18:24:41.125Z,58.58
2022-12-20T18:27:11.436Z,60.17
2022-12-20T18:29:38.484Z,57.75
2022-12-20T18:32:11.312Z,58.05
2022-12-20T18:34:38.192Z,68.07
2022-12-20T18:37:33.700Z,70.68
2022-12-20T18:40:03.640Z,62.63
2022-12-20T18:42:32.189Z,70.25
2022-12-20T18:45:00.230Z,69.13
2022-12-20T18:47:29.885Z,69.30
2022-12-20T18:50:04.790Z,71.95
2022-12-20T18:52:32.998Z,85.82
2022-12-20T18:55:04.331Z,84.80
2022-12-20T18:57:32.955Z,66.30
2022-12-20T19:00:00.144Z,69.28
2022-12-20T19:02:29.585Z,69.82
2022-12-20T19:04:56.978Z,77.30
2022-12-20T19:07:25.226Z,78.68
2022-12-20T19:09:55.544Z,75.03
2022-12-20T19:12:25.647Z,81.07
2022-12-20T19:14:56.714Z,65.68
2022-12-20T19:17:27.376Z,75.85
2022-12-20T19:19:54.804Z,64.82
2022-12-20T19:22:24.383Z,72.57
2022-12-20T19:24:53.486Z,81.05
2022-12-20T19:27:28.629Z,77.38
2022-12-20T19:30:18.504Z,84.55
2022-12-20T19:32:51.310Z,83.97
2022-12-20T19:35:53.653Z,81.75
2022-12-20T19:38:05.495Z,80.28
2022-12-20T19:40:36.404Z,80.90
2022-12-20T19:43:03.306Z,97.18
2022-12-20T19:45:37.689Z,92.32
2022-12-20T19:48:10.931Z,122.78
2022-12-20T19:50:37.950Z,87.18
2022-12-20T19:53:10.583Z,109.03
2022-12-20T19:55:40.678Z,91.82
2022-12-20T19:58:07.708Z,91.65
2022-12-20T20:00:48.607Z,124.32
2022-12-20T20:03:16.258Z,226.23
2022-12-20T20:05:49.474Z,175.82
2022-12-20T20:08:24.198Z,144.63
2022-12-20T20:11:07.124Z,97.13
2022-12-20T20:13:42.856Z,99.97
2022-12-20T20:16:22.280Z,207.50
2022-12-20T20:18:50.669Z,142.25
2022-12-20T20:21:20.273Z,158.63
2022-12-20T20:24:02.285Z,191.82
2022-12-20T20:26:31.648Z,101.43
2022-12-20T20:29:00.515Z,120.88
2022-12-20T20:31:31.929Z,111.00
2022-12-20T20:34:02.454Z,145.95
2022-12-20T20:36:30.040Z,62.28
2022-12-20T20:38:56.953Z,83.97
2022-12-20T20:41:26.455Z,74.43
2022-12-20T20:43:57.799Z,207.07
2022-12-20T20:46:27.604Z,157.68
2022-12-20T20:48:56.807Z,112.22
2022-12-20T20:51:27.917Z,76.60
2022-12-20T20:54:01.659Z,185.27
2022-12-20T20:56:31.055Z,219.43
2022-12-20T20:59:07.021Z,103.53
2022-12-20T21:02:08.535Z,99.35
2022-12-20T21:05:52.448Z,142.93
2022-12-20T21:08:00.344Z,89.18
2022-12-20T21:11:06.872Z,191.07
2022-12-20T21:13:45.868Z,181.00
2022-12-20T21:16:26.540Z,209.05
2022-12-20T21:18:55.338Z,212.80
2022-12-20T21:21:31.441Z,177.95
2022-12-20T21:24:09.462Z,91.70
2022-12-20T21:27:10.064Z,151.50
2022-12-20T21:29:50.535Z,225.95
2022-12-20T21:32:19.895Z,232.63
2022-12-20T21:37:46.874Z,172.68
2022-12-20T21:40:25.361Z,199.68
2022-12-20T21:42:55.323Z,164.52
2022-12-20T21:45:25.432Z,152.55
2022-12-20T21:48:03.394Z,162.55
2022-12-20T21:50:33.918Z,136.07
2022-12-20T21:53:19.455Z,155.73
2022-12-20T21:55:46.721Z,135.93
2022-12-20T21:58:15.725Z,125.30
2022-12-20T22:00:50.921Z,175.77
2022-12-20T22:03:24.482Z,153.60
2022-12-20T22:05:57.146Z,131.45
2022-12-20T22:08:33.094Z,158.88
2022-12-20T22:11:00.787Z,125.25
2022-12-20T22:13:41.241Z,125.82
2022-12-20T22:16:18.254Z,147.27
2022-12-20T22:18:50.401Z,114.82
2022-12-20T22:21:22.722Z,85.20
2022-12-20T22:23:54.297Z,121.50
2022-12-20T22:26:28.002Z,135.43
2022-12-20T22:29:01.213Z,113.75
2022-12-20T22:31:33.434Z,159.70
2022-12-20T22:34:11.121Z,166.35
2022-12-20T22:36:41.231Z,127.40
2022-12-20T22:39:16.195Z,157.63
2022-12-20T22:41:45.901Z,152.20
2022-12-20T22:44:16.209Z,137.23
2022-12-20T22:46:43.149Z,152.10
2022-12-20T22:49:16.621Z,105.47
2022-12-20T22:51:59.323Z,136.65
2022-12-20T22:54:33.641Z,173.38
2022-12-20T22:57:00.726Z,146.93
2022-12-20T22:59:40.478Z,213.30
2022-12-20T23:02:07.619Z,107.10
2022-12-20T23:04:46.276Z,99.35
2022-12-20T23:07:19.459Z,144.63
2022-12-20T23:09:52.472Z,119.07
2022-12-20T23:12:20.217Z,291.80
2022-12-20T23:14:51.277Z,181.15
2022-12-20T23:17:20.747Z,236.25
2022-12-20T23:19:53.549Z,423.02
2022-12-20T23:22:24.078Z,324.98
2022-12-20T23:24:55.586Z,244.53
2022-12-20T23:27:26.100Z,446.00
2022-12-20T23:29:53.276Z,263.38
2022-12-20T23:32:26.685Z,489.77
2022-12-20T23:34:55.268Z,340.63
2022-12-20T23:37:23.203Z,270.63
2022-12-20T23:40:14.127Z,248.13
2022-12-20T23:43:06.284Z,328.13
2022-12-20T23:45:55.518Z,371.20
2022-12-20T23:48:34.438Z,278.88
2022-12-20T23:51:09.807Z,349.27
2022-12-20T23:53:45.327Z,513.40
2022-12-20T23:56:25.535Z,336.65
2022-12-20T23:59:08.721Z,519.83
